createdAt,value
2022-09-20T04:21:47.857Z,3.40
2022-09-20T04:25:06.920Z,3.30
2022-09-20T04:28:34.351Z,3.75
2022-09-20T04:31:49.813Z,3.70
2022-09-20T04:35:23.623Z,3.20
2022-09-20T04:38:26.979Z,3.80
2022-09-20T04:42:15.402Z,3.45
2022-09-20T04:45:55.342Z,3.70
2022-09-20T04:49:09.337Z,3.37
2022-09-20T04:52:46.306Z,3.05
2022-09-20T04:55:55.038Z,3.80
2022-09-20T04:59:09.363Z,3.58
2022-09-20T05:02:24.195Z,3.60
2022-09-20T05:05:51.394Z,3.72
2022-09-20T05:09:29.537Z,3.87
2022-09-20T05:12:54.563Z,4.28
2022-09-20T05:16:03.247Z,3.58
2022-09-20T05:19:08.905Z,3.78
2022-09-20T05:22:48.406Z,3.40
2022-09-20T05:26:08.541Z,3.55
2022-09-20T05:29:28.946Z,3.40
2022-09-20T05:32:42.338Z,3.30
2022-09-20T05:36:06.324Z,3.75
2022-09-20T05:39:28.606Z,3.87
2022-09-20T05:43:11.937Z,3.80
2022-09-20T05:46:40.529Z,3.45
2022-09-20T05:49:58.240Z,3.60
2022-09-20T05:57:12.306Z,3.30
2022-09-20T06:00:19.737Z,3.10
2022-09-20T06:30:24.626Z,3.50
2022-09-20T06:33:30.163Z,3.37
2022-09-20T06:40:52.127Z,3.65
2022-09-20T08:42:27.199Z,2.20
2022-09-20T08:45:34.758Z,2.72
2022-09-20T08:48:41.868Z,2.30
2022-09-20T08:59:31.399Z,2.17
2022-09-20T09:02:34.451Z,2.30
2022-09-20T09:05:49.176Z,2.20
2022-09-20T09:08:53.872Z,1.95
2022-09-20T09:11:58.867Z,2.03
2022-09-20T09:15:29.256Z,2.33
2022-09-20T09:18:43.824Z,2.30
2022-09-20T09:21:46.619Z,1.58
2022-09-20T09:25:16.902Z,2.17
2022-09-20T09:28:24.106Z,2.00
2022-09-20T09:31:29.551Z,2.00
2022-09-20T09:34:35.356Z,2.10
2022-09-20T09:37:39.034Z,2.08
2022-09-20T09:52:16.743Z,2.25
2022-09-20T10:17:57.431Z,1.62
2022-09-20T10:21:07.808Z,1.60
2022-09-20T10:24:34.745Z,1.70
2022-09-20T10:28:03.374Z,1.70
2022-09-20T10:31:14.102Z,1.80
2022-09-20T10:34:32.119Z,1.80
2022-09-20T10:38:01.028Z,1.85
2022-09-20T10:41:31.655Z,1.77
2022-09-20T10:45:06.561Z,1.95
2022-09-20T10:48:18.161Z,2.30
2022-09-20T10:51:45.998Z,1.60
2022-09-20T11:06:39.454Z,1.42
2022-09-20T11:10:24.298Z,1.67
2022-09-20T11:21:21.971Z,2.00
2022-09-20T11:24:37.010Z,1.95
2022-09-20T11:35:22.390Z,2.83
2022-09-20T11:38:40.298Z,1.95
2022-09-20T11:49:20.652Z,1.77
2022-09-20T11:53:11.486Z,1.48
2022-09-20T11:56:14.011Z,1.60
2022-09-20T11:59:39.650Z,1.70
2022-09-20T12:14:01.708Z,1.42
2022-09-20T12:17:05.465Z,1.45
2022-09-20T12:20:33.081Z,1.98
2022-09-20T12:23:42.392Z,1.33
2022-09-20T12:26:46.074Z,1.15
2022-09-20T12:30:03.348Z,1.35
2022-09-20T12:33:20.563Z,1.20
2022-09-20T12:36:24.159Z,1.70
2022-09-20T12:39:31.495Z,1.87
2022-09-20T12:46:26.731Z,1.40
2022-09-20T12:50:08.509Z,1.48
2022-09-20T12:53:16.761Z,1.00
2022-09-20T12:56:26.607Z,1.20
2022-09-20T12:59:31.095Z,1.27
2022-09-20T13:02:52.897Z,1.60
2022-09-20T13:06:07.790Z,1.60
2022-09-20T13:09:13.964Z,1.70
2022-09-20T13:12:17.079Z,1.60
2022-09-20T13:15:21.825Z,1.65
2022-09-20T13:18:27.404Z,2.17
2022-09-20T13:21:32.694Z,1.80
2022-09-20T13:24:48.828Z,2.10
2022-09-20T13:28:03.276Z,2.10
2022-09-20T13:31:27.439Z,2.00
2022-09-20T13:34:30.841Z,2.00
2022-09-20T13:49:23.841Z,2.10
2022-09-20T13:52:29.144Z,1.58
2022-09-20T13:55:38.747Z,1.50
2022-09-20T13:58:42.571Z,1.80
2022-09-20T14:01:51.286Z,1.85
2022-09-20T14:04:56.101Z,2.00
2022-09-20T14:08:00.733Z,1.85
2022-09-20T14:11:14.407Z,1.60
2022-09-20T14:14:22.235Z,1.23
2022-09-20T14:17:29.528Z,1.23
2022-09-20T14:20:32.859Z,1.08
2022-09-20T14:23:51.380Z,0.95
2022-09-20T14:27:05.167Z,1.15
2022-09-20T14:30:37.385Z,0.68
2022-09-20T14:33:44.450Z,0.90
2022-09-20T14:36:49.419Z,0.98
2022-09-20T14:39:57.659Z,1.00
2022-09-20T14:43:03.494Z,0.60
2022-09-20T14:46:16.773Z,0.73
2022-09-20T14:49:19.669Z,0.80
2022-09-20T14:52:38.616Z,0.60
2022-09-20T14:56:06.843Z,0.77
2022-09-20T14:59:11.628Z,1.10
2022-09-20T15:02:15.651Z,0.85
2022-09-20T15:05:23.881Z,1.05
2022-09-20T15:08:27.405Z,0.98
2022-09-20T15:11:30.008Z,1.20
2022-09-20T15:14:37.449Z,1.15
2022-09-20T15:17:43.833Z,1.50
2022-09-20T15:20:49.351Z,1.40
2022-09-20T15:23:52.225Z,1.37
2022-09-20T15:26:54.974Z,1.50
2022-09-20T15:29:57.394Z,1.27
2022-09-20T15:33:03.010Z,1.27
2022-09-20T15:36:06.101Z,1.30
2022-09-20T15:39:09.219Z,1.05
2022-09-20T15:42:11.662Z,1.20
2022-09-20T15:45:14.799Z,1.35
2022-09-20T15:48:22.435Z,2.00
